createdAt,value
2023-03-28T00:01:11.034Z,99.90
2023-03-28T00:03:42.437Z,99.90
2023-03-28T00:06:18.786Z,99.90
2023-03-28T00:08:47.632Z,99.90
2023-03-28T00:11:20.537Z,99.90
2023-03-28T00:13:58.417Z,99.90
2023-03-28T00:16:26.197Z,99.90
2023-03-28T00:18:53.539Z,99.90
2023-03-28T00:21:26.107Z,99.90
2023-03-28T00:23:55.436Z,99.90
2023-03-28T00:26:27.011Z,99.90
2023-03-28T00:28:54.761Z,99.90
2023-03-28T00:31:22.225Z,99.90
2023-03-28T00:33:49.871Z,99.90
2023-03-28T00:36:26.803Z,99.90
2023-03-28T00:38:54.213Z,99.90
2023-03-28T00:41:22.692Z,99.90
2023-03-28T00:43:52.622Z,99.90
2023-03-28T00:46:46.607Z,99.90
2023-03-28T00:49:23.614Z,99.90
2023-03-28T00:52:01.877Z,99.90
2023-03-28T00:54:33.696Z,99.90
2023-03-28T00:57:02.922Z,99.90
2023-03-28T00:59:34.307Z,99.90
2023-03-28T01:02:01.758Z,99.90
2023-03-28T01:04:37.875Z,99.90
2023-03-28T01:07:06.326Z,99.90
2023-03-28T01:09:33.735Z,99.90
2023-03-28T01:12:01.279Z,99.90
2023-03-28T01:14:30.350Z,99.90
2023-03-28T01:17:02.587Z,99.90
2023-03-28T01:19:44.930Z,99.90
2023-03-28T01:22:26.900Z,99.90
2023-03-28T01:25:18.073Z,99.90
2023-03-28T01:28:43.009Z,99.90
2023-03-28T01:31:38.650Z,99.90
2023-03-28T01:34:57.829Z,99.90
2023-03-28T01:37:44.365Z,99.90
2023-03-28T01:40:16.732Z,99.90
2023-03-28T01:42:59.465Z,99.90
2023-03-28T01:45:41.599Z,99.90
2023-03-28T01:48:42.435Z,99.90
2023-03-28T01:51:18.520Z,99.90
2023-03-28T01:54:12.766Z,99.90
2023-03-28T01:57:10.707Z,99.90
2023-03-28T02:00:12.865Z,99.90
2023-03-28T02:02:49.562Z,99.90
2023-03-28T02:05:22.168Z,99.90
2023-03-28T02:07:52.176Z,99.90
2023-03-28T02:10:24.857Z,99.90
2023-03-28T02:13:03.511Z,99.90
2023-03-28T02:15:32.362Z,99.90
2023-03-28T02:18:11.444Z,99.90
2023-03-28T02:20:40.476Z,99.90
2023-03-28T02:23:30.871Z,99.90
2023-03-28T02:25:58.072Z,99.90
2023-03-28T02:28:27.192Z,99.90
2023-03-28T02:30:55.395Z,99.90
2023-03-28T02:33:38.099Z,99.90
2023-03-28T02:36:29.665Z,99.90
2023-03-28T02:39:11.735Z,99.90
2023-03-28T02:41:41.462Z,99.90
2023-03-28T02:44:11.406Z,99.90
2023-03-28T02:47:12.547Z,99.90
2023-03-28T02:50:08.435Z,99.90
2023-03-28T02:52:53.625Z,99.90
2023-03-28T02:55:57.118Z,99.90
2023-03-28T02:58:34.454Z,99.90
2023-03-28T03:01:03.596Z,99.90
2023-03-28T03:03:31.356Z,99.90
2023-03-28T03:05:58.649Z,99.90
2023-03-28T03:08:27.970Z,99.90
2023-03-28T03:10:54.885Z,99.90
2023-03-28T03:13:21.876Z,99.90
2023-03-28T03:15:49.532Z,99.90
2023-03-28T03:18:19.777Z,99.90
2023-03-28T03:20:50.440Z,99.90
2023-03-28T03:23:18.034Z,99.90
2023-03-28T03:25:45.669Z,99.90
2023-03-28T03:28:13.306Z,99.90
2023-03-28T03:30:40.687Z,99.90
2023-03-28T03:33:10.684Z,99.90
2023-03-28T03:35:42.278Z,99.90
2023-03-28T03:38:10.233Z,99.90
2023-03-28T03:40:37.277Z,99.90
2023-03-28T03:43:04.444Z,99.90
2023-03-28T03:45:31.655Z,99.90
2023-03-28T03:48:01.421Z,99.90
2023-03-28T03:50:28.497Z,99.90
2023-03-28T03:52:56.016Z,99.90
2023-03-28T03:55:23.041Z,99.90
2023-03-28T03:57:50.092Z,99.90
2023-03-28T04:00:17.258Z,99.90
2023-03-28T04:02:44.501Z,99.90
2023-03-28T04:05:11.671Z,99.90
2023-03-28T04:08:04.654Z,99.90
2023-03-28T04:10:31.702Z,99.90
2023-03-28T04:12:58.734Z,99.90
2023-03-28T04:15:25.867Z,99.90
2023-03-28T04:17:57.065Z,99.90
2023-03-28T04:20:32.024Z,99.90
2023-03-28T04:23:02.126Z,99.90
2023-03-28T04:25:30.029Z,99.90
2023-03-28T04:27:57.200Z,99.90
2023-03-28T04:30:25.977Z,99.90
2023-03-28T04:32:55.674Z,99.90
2023-03-28T04:35:24.352Z,99.90
2023-03-28T04:37:51.450Z,99.90
2023-03-28T04:40:18.599Z,99.90
2023-03-28T04:42:46.110Z,99.90
2023-03-28T04:45:14.551Z,99.90
2023-03-28T04:47:43.228Z,99.90
2023-03-28T04:50:14.109Z,99.90
2023-03-28T04:52:41.057Z,99.90
2023-03-28T04:55:10.350Z,99.90
2023-03-28T04:57:38.345Z,99.90
2023-03-28T05:00:17.328Z,99.90
2023-03-28T05:02:44.624Z,99.90
2023-03-28T05:05:11.700Z,99.90
2023-03-28T05:07:38.919Z,99.90
2023-03-28T05:10:06.669Z,99.90
2023-03-28T05:12:33.977Z,99.90
2023-03-28T05:15:46.531Z,99.90
2023-03-28T05:17:48.659Z,99.90
2023-03-28T05:20:16.699Z,99.90
2023-03-28T05:22:43.677Z,99.90
2023-03-28T05:25:11.383Z,99.90
2023-03-28T05:27:55.067Z,99.90
2023-03-28T05:30:22.528Z,99.90
2023-03-28T05:32:49.829Z,99.90
2023-03-28T05:35:17.216Z,99.90
2023-03-28T05:37:46.866Z,99.90
2023-03-28T05:40:15.490Z,99.90
2023-03-28T05:42:42.784Z,99.90
2023-03-28T05:45:16.238Z,99.90
2023-03-28T05:47:43.385Z,99.90
2023-03-28T05:50:11.100Z,99.90
2023-03-28T05:52:38.353Z,99.90
2023-03-28T05:55:06.176Z,99.90
2023-03-28T05:57:33.183Z,99.90
2023-03-28T06:00:00.278Z,99.90
2023-03-28T06:02:33.554Z,99.90
2023-03-28T06:05:00.899Z,99.90
2023-03-28T06:07:41.415Z,99.90
2023-03-28T06:10:11.699Z,99.90
2023-03-28T06:12:38.782Z,99.90
2023-03-28T06:15:06.948Z,99.90
2023-03-28T06:17:34.201Z,99.90
2023-03-28T06:20:01.287Z,99.90
2023-03-28T06:22:28.513Z,99.90
2023-03-28T06:24:55.439Z,99.90
2023-03-28T06:27:22.519Z,99.90
2023-03-28T06:29:49.702Z,99.90
2023-03-28T06:32:18.067Z,99.90
2023-03-28T06:34:45.550Z,99.90
2023-03-28T06:37:12.533Z,99.90
2023-03-28T06:39:39.385Z,99.90
2023-03-28T06:42:08.942Z,99.90
2023-03-28T06:44:35.896Z,99.90
2023-03-28T06:47:02.983Z,99.90
2023-03-28T06:49:29.927Z,99.90
2023-03-28T06:51:56.825Z,99.90
2023-03-28T06:54:23.736Z,99.90
2023-03-28T06:56:50.741Z,99.90
2023-03-28T06:59:17.894Z,99.90
2023-03-28T07:01:44.901Z,99.90
2023-03-28T07:04:11.783Z,99.90
2023-03-28T07:06:38.689Z,99.90
2023-03-28T07:09:06.748Z,99.90
2023-03-28T07:11:33.952Z,99.90
2023-03-28T07:14:00.926Z,99.90
2023-03-28T07:16:27.805Z,99.90
2023-03-28T07:18:54.685Z,99.90
2023-03-28T07:21:21.576Z,99.90
2023-03-28T07:23:48.537Z,99.90
2023-03-28T07:26:17.905Z,99.90
2023-03-28T07:28:44.762Z,96.20
2023-03-28T07:31:12.357Z,90.10
2023-03-28T07:33:39.924Z,90.70
2023-03-28T07:36:13.561Z,93.30
2023-03-28T07:38:40.421Z,94.70
2023-03-28T07:41:08.065Z,98.00
2023-03-28T07:43:35.487Z,99.90
2023-03-28T07:46:08.180Z,99.90
2023-03-28T07:48:36.475Z,99.90
2023-03-28T07:51:09.281Z,99.90
2023-03-28T07:53:37.911Z,99.90
2023-03-28T07:56:06.277Z,99.90
2023-03-28T07:58:33.127Z,99.90
2023-03-28T08:01:07.762Z,99.90
2023-03-28T08:03:35.081Z,95.20
2023-03-28T08:06:13.762Z,91.50
2023-03-28T08:08:47.201Z,80.70
2023-03-28T08:11:14.066Z,73.70
2023-03-28T08:13:40.926Z,73.00
2023-03-28T08:16:08.450Z,69.20
2023-03-28T08:18:35.318Z,73.70
2023-03-28T08:21:03.523Z,77.70
2023-03-28T08:23:31.246Z,78.90
2023-03-28T08:26:06.317Z,82.40
2023-03-28T08:28:37.168Z,82.00
2023-03-28T08:31:15.671Z,80.40
2023-03-28T08:33:44.203Z,76.10
2023-03-28T08:36:15.568Z,72.60
2023-03-28T08:38:43.003Z,69.70
2023-03-28T08:41:40.999Z,73.70
2023-03-28T08:44:25.898Z,78.00
2023-03-28T08:46:57.800Z,79.90
2023-03-28T08:49:24.961Z,77.70
2023-03-28T08:51:58.010Z,78.60
2023-03-28T08:54:33.780Z,81.00
2023-03-28T08:57:03.860Z,76.90
2023-03-28T08:59:39.636Z,71.20
2023-03-28T09:02:27.607Z,70.40
2023-03-28T09:05:05.140Z,68.50
2023-03-28T09:08:03.918Z,69.70
2023-03-28T09:10:43.414Z,67.10
2023-03-28T09:13:33.090Z,60.50
2023-03-28T09:16:24.258Z,57.80
2023-03-28T09:19:15.470Z,56.20
2023-03-28T09:22:15.089Z,59.00
2023-03-28T09:25:20.756Z,61.00
2023-03-28T09:28:03.439Z,63.00
2023-03-28T09:30:34.530Z,65.50
2023-03-28T09:33:13.176Z,61.40
2023-03-28T09:35:41.924Z,59.00
2023-03-28T09:38:22.732Z,57.90
2023-03-28T09:40:53.804Z,55.10
2023-03-28T09:43:44.221Z,55.60
2023-03-28T09:46:31.611Z,55.70
2023-03-28T09:48:58.712Z,56.60
2023-03-28T09:51:26.026Z,55.40
2023-03-28T09:53:53.025Z,52.50
2023-03-28T09:56:33.280Z,51.60
2023-03-28T09:59:05.318Z,50.70
2023-03-28T10:01:51.750Z,51.10
2023-03-28T10:04:21.434Z,50.30
2023-03-28T10:06:49.116Z,53.20
2023-03-28T10:09:30.920Z,53.00
2023-03-28T10:12:00.043Z,50.20
2023-03-28T10:14:38.377Z,47.00
2023-03-28T10:17:15.546Z,44.60
2023-03-28T10:19:46.995Z,45.70
2023-03-28T10:22:25.794Z,49.00
2023-03-28T10:24:53.250Z,52.30
2023-03-28T10:27:32.773Z,54.20
2023-03-28T10:30:21.951Z,54.60
2023-03-28T10:33:21.352Z,53.60
2023-03-28T10:35:59.107Z,51.40
2023-03-28T10:38:45.015Z,48.10
2023-03-28T10:41:25.378Z,47.50
2023-03-28T10:43:53.788Z,46.20
2023-03-28T10:46:35.903Z,46.20
2023-03-28T10:49:12.549Z,43.70
2023-03-28T10:51:41.852Z,41.80
2023-03-28T10:54:48.667Z,43.30
2023-03-28T10:57:22.238Z,43.20
2023-03-28T10:59:57.820Z,41.90
2023-03-28T11:02:49.988Z,41.00
2023-03-28T11:05:45.188Z,40.60
2023-03-28T11:08:36.799Z,41.90
2023-03-28T11:11:36.696Z,43.10
2023-03-28T11:14:28.676Z,42.90
2023-03-28T11:16:55.481Z,41.50
2023-03-28T11:19:52.431Z,40.50
2023-03-28T11:22:52.275Z,40.00
2023-03-28T11:25:52.443Z,41.00
2023-03-28T11:28:51.690Z,41.10
2023-03-28T11:31:45.228Z,41.70
2023-03-28T11:34:35.375Z,42.20
2023-03-28T11:37:14.413Z,40.90
2023-03-28T11:39:56.257Z,39.50
2023-03-28T11:42:31.071Z,37.90
2023-03-28T11:45:37.899Z,38.00
2023-03-28T11:48:36.292Z,37.10
2023-03-28T11:51:25.521Z,39.00
2023-03-28T11:54:01.517Z,39.80
2023-03-28T11:56:55.031Z,42.00
2023-03-28T11:59:24.969Z,42.20
2023-03-28T12:02:01.789Z,40.90
2023-03-28T12:04:35.041Z,39.80
2023-03-28T12:07:18.484Z,40.00
2023-03-28T12:10:13.213Z,40.90
2023-03-28T12:13:05.593Z,41.70
2023-03-28T12:15:38.214Z,40.50
2023-03-28T12:18:10.628Z,40.50
2023-03-28T12:20:51.888Z,39.50
2023-03-28T12:23:37.909Z,38.70
2023-03-28T12:26:44.971Z,38.50
2023-03-28T12:29:32.603Z,37.80
2023-03-28T12:32:39.170Z,37.00
2023-03-28T12:35:07.436Z,35.60
2023-03-28T12:37:49.913Z,34.40
2023-03-28T12:40:27.359Z,34.20
2023-03-28T12:42:57.589Z,33.10
2023-03-28T12:45:32.815Z,32.20
2023-03-28T12:48:08.104Z,32.90
2023-03-28T12:50:58.142Z,32.10
2023-03-28T12:53:25.085Z,30.90
2023-03-28T12:55:52.789Z,32.50
2023-03-28T12:58:28.553Z,32.30
2023-03-28T13:01:09.006Z,32.20
2023-03-28T13:04:04.639Z,33.10
2023-03-28T13:07:17.025Z,33.70
2023-03-28T13:09:53.809Z,33.20
2023-03-28T13:12:49.378Z,32.80
2023-03-28T13:15:16.307Z,32.60
2023-03-28T13:17:47.895Z,31.70
2023-03-28T13:20:17.714Z,32.10
2023-03-28T13:23:00.519Z,32.20
2023-03-28T13:25:32.497Z,31.00
2023-03-28T13:28:22.553Z,30.90
2023-03-28T13:31:05.166Z,32.20
2023-03-28T13:33:44.932Z,30.70
2023-03-28T13:36:17.198Z,31.40
2023-03-28T13:39:11.274Z,30.80
2023-03-28T13:41:41.118Z,31.20
2023-03-28T13:44:14.103Z,31.30
2023-03-28T13:46:44.505Z,30.70
2023-03-28T13:49:18.943Z,31.20
2023-03-28T13:51:54.780Z,30.30
2023-03-28T13:54:22.573Z,29.90
2023-03-28T13:56:51.250Z,29.90
2023-03-28T13:59:26.030Z,30.20
2023-03-28T14:01:59.989Z,30.70
2023-03-28T14:04:33.012Z,30.10
2023-03-28T14:07:00.988Z,29.70
2023-03-28T14:09:31.296Z,29.70
2023-03-28T14:12:03.052Z,30.00
2023-03-28T14:14:34.561Z,29.90
2023-03-28T14:17:07.750Z,30.20
2023-03-28T14:19:43.401Z,29.90
2023-03-28T14:22:18.907Z,30.60
2023-03-28T14:24:50.009Z,30.10
2023-03-28T14:27:28.271Z,31.00
2023-03-28T14:29:57.616Z,31.40
2023-03-28T14:32:33.050Z,31.30
2023-03-28T14:35:19.264Z,31.30
2023-03-28T14:37:57.426Z,32.10
2023-03-28T14:40:24.451Z,32.40
2023-03-28T14:42:58.237Z,32.50
2023-03-28T14:45:27.486Z,32.70
2023-03-28T14:47:56.699Z,32.90
2023-03-28T14:50:32.529Z,33.50
2023-03-28T14:53:09.497Z,34.40
2023-03-28T14:55:37.759Z,35.00
2023-03-28T14:58:06.198Z,34.40
2023-03-28T15:00:40.325Z,34.80
2023-03-28T15:03:15.062Z,35.00
2023-03-28T15:05:47.494Z,35.10
2023-03-28T15:08:36.104Z,35.60
2023-03-28T15:11:08.201Z,36.50
2023-03-28T15:13:44.250Z,36.60
2023-03-28T15:16:20.490Z,37.10
2023-03-28T15:18:55.641Z,38.00
2023-03-28T15:21:23.902Z,38.50
2023-03-28T15:23:57.899Z,38.90
2023-03-28T15:26:31.912Z,39.40
2023-03-28T15:28:59.301Z,40.00
2023-03-28T15:31:27.195Z,40.40
2023-03-28T15:33:54.976Z,40.30
2023-03-28T15:36:32.429Z,41.30
2023-03-28T15:39:32.483Z,42.40
2023-03-28T15:42:01.708Z,42.90
2023-03-28T15:44:37.953Z,43.30
2023-03-28T15:47:13.226Z,43.50
2023-03-28T15:49:40.546Z,43.90
2023-03-28T15:52:19.854Z,43.70
2023-03-28T15:54:52.202Z,43.60
2023-03-28T15:57:22.767Z,43.60
2023-03-28T15:59:56.055Z,43.30
2023-03-28T16:02:22.940Z,42.50
2023-03-28T16:05:01.904Z,41.70
2023-03-28T16:07:44.252Z,41.20
2023-03-28T16:10:13.298Z,41.30
2023-03-28T16:12:40.903Z,41.10
2023-03-28T16:15:08.640Z,41.10
2023-03-28T16:17:36.384Z,40.10
2023-03-28T16:20:23.157Z,40.10
2023-03-28T16:22:50.775Z,39.20
2023-03-28T16:25:17.693Z,38.20
2023-03-28T16:27:44.747Z,37.10
2023-03-28T16:30:30.749Z,37.20
2023-03-28T16:32:57.763Z,37.10
2023-03-28T16:35:27.198Z,36.40
2023-03-28T16:37:54.919Z,36.70
2023-03-28T16:40:22.265Z,37.70
2023-03-28T16:42:49.188Z,37.50
2023-03-28T16:45:16.210Z,37.00
2023-03-28T16:47:43.482Z,36.80
2023-03-28T16:50:10.716Z,36.80
2023-03-28T16:52:39.154Z,37.00
2023-03-28T16:55:17.650Z,35.70
2023-03-28T16:57:45.014Z,35.40
2023-03-28T17:00:17.953Z,35.80
2023-03-28T17:02:47.876Z,36.60
2023-03-28T17:05:15.638Z,37.70
2023-03-28T17:07:42.713Z,39.10
2023-03-28T17:10:10.255Z,41.80
2023-03-28T17:12:37.138Z,43.00
2023-03-28T17:15:04.394Z,44.00
2023-03-28T17:17:31.259Z,44.90
2023-03-28T17:19:58.126Z,45.80
2023-03-28T17:22:25.660Z,46.30
2023-03-28T17:24:52.546Z,47.50
2023-03-28T17:27:21.216Z,47.70
2023-03-28T17:29:48.050Z,47.80
2023-03-28T17:32:15.024Z,48.30
2023-03-28T17:34:42.056Z,48.50
2023-03-28T17:37:08.844Z,48.90
2023-03-28T17:39:36.599Z,49.60
2023-03-28T17:42:04.062Z,50.10
2023-03-28T17:44:31.010Z,49.80
2023-03-28T17:46:58.182Z,51.20
2023-03-28T17:49:25.191Z,51.60
2023-03-28T17:51:52.163Z,51.90
2023-03-28T17:54:19.676Z,53.10
2023-03-28T17:56:46.583Z,52.10
2023-03-28T17:59:13.575Z,52.20
2023-03-28T18:01:41.060Z,53.50
2023-03-28T18:04:08.163Z,53.30
2023-03-28T18:06:35.313Z,53.60
2023-03-28T18:09:02.217Z,53.40
2023-03-28T18:11:29.042Z,53.70
2023-03-28T18:13:57.867Z,54.20
2023-03-28T18:16:26.714Z,54.10
2023-03-28T18:18:54.412Z,54.50
2023-03-28T18:21:21.825Z,54.90
2023-03-28T18:23:48.873Z,54.90
2023-03-28T18:26:16.141Z,55.10
2023-03-28T18:28:43.502Z,55.80
2023-03-28T18:31:15.659Z,56.20
2023-03-28T18:33:43.760Z,57.50
2023-03-28T18:36:13.121Z,58.10
2023-03-28T18:38:42.817Z,57.80
2023-03-28T18:41:10.991Z,58.20
2023-03-28T18:43:38.884Z,59.10
2023-03-28T18:46:07.936Z,59.40
2023-03-28T18:48:35.697Z,59.00
2023-03-28T18:51:03.857Z,59.10
2023-03-28T18:53:30.710Z,59.30
2023-03-28T18:55:57.627Z,60.40
2023-03-28T18:58:26.140Z,61.10
2023-03-28T19:01:02.579Z,62.10
2023-03-28T19:03:32.243Z,63.30
2023-03-28T19:06:01.620Z,63.70
2023-03-28T19:08:30.058Z,65.50
2023-03-28T19:11:00.175Z,65.50
2023-03-28T19:13:29.067Z,65.40
2023-03-28T19:16:07.067Z,65.70
2023-03-28T19:18:36.888Z,65.70
2023-03-28T19:21:03.945Z,66.00
2023-03-28T19:23:30.972Z,66.50
2023-03-28T19:25:58.189Z,66.80
2023-03-28T19:28:25.427Z,67.40
2023-03-28T19:31:03.161Z,68.50
2023-03-28T19:33:30.461Z,69.00
2023-03-28T19:35:57.580Z,70.00
2023-03-28T19:38:26.349Z,70.80
2023-03-28T19:41:00.078Z,71.90
2023-03-28T19:43:28.344Z,72.20
2023-03-28T19:46:04.865Z,73.20
2023-03-28T19:48:33.046Z,73.70
2023-03-28T19:51:00.035Z,74.10
2023-03-28T19:53:27.641Z,74.90
2023-03-28T19:55:56.661Z,76.20
2023-03-28T19:58:25.911Z,75.90
2023-03-28T20:00:52.839Z,75.90
2023-03-28T20:03:19.689Z,76.60
2023-03-28T20:05:48.489Z,76.90
2023-03-28T20:08:17.542Z,77.70
2023-03-28T20:10:47.203Z,78.80
2023-03-28T20:13:14.887Z,80.80
2023-03-28T20:15:43.930Z,82.30
2023-03-28T20:18:15.649Z,85.00
2023-03-28T20:20:42.923Z,87.00
2023-03-28T20:23:11.831Z,89.40
2023-03-28T20:25:38.996Z,91.00
2023-03-28T20:28:10.028Z,91.90
2023-03-28T20:30:37.899Z,93.30
2023-03-28T20:33:05.035Z,94.30
2023-03-28T20:35:32.112Z,95.70
2023-03-28T20:37:59.775Z,96.80
2023-03-28T20:40:27.171Z,98.20
2023-03-28T20:42:54.817Z,98.90
2023-03-28T20:45:25.092Z,99.70
2023-03-28T20:47:57.148Z,99.90
2023-03-28T20:50:34.023Z,99.90
2023-03-28T20:53:02.176Z,99.90
2023-03-28T20:55:31.293Z,99.90
2023-03-28T20:57:58.677Z,99.90
2023-03-28T21:00:32.102Z,99.90
2023-03-28T21:02:59.878Z,99.90
2023-03-28T21:05:35.937Z,99.90
2023-03-28T21:08:04.554Z,99.90
2023-03-28T21:10:33.297Z,99.90
2023-03-28T21:13:00.522Z,99.90
2023-03-28T21:15:29.116Z,99.90
2023-03-28T21:17:56.558Z,99.90
2023-03-28T21:20:23.544Z,99.90
2023-03-28T21:22:51.006Z,99.90
2023-03-28T21:25:18.655Z,99.90
2023-03-28T21:27:45.834Z,99.90
2023-03-28T21:30:13.913Z,99.90
2023-03-28T21:32:41.007Z,99.90
2023-03-28T21:35:08.578Z,99.90
2023-03-28T21:37:36.159Z,99.90
2023-03-28T21:40:06.626Z,99.90
2023-03-28T21:42:35.134Z,99.90
2023-03-28T21:45:02.109Z,99.90
2023-03-28T21:47:29.137Z,99.90
2023-03-28T21:49:56.041Z,99.90
2023-03-28T21:52:23.056Z,99.90
2023-03-28T21:54:50.045Z,99.90
2023-03-28T21:57:17.115Z,99.90
2023-03-28T21:59:46.061Z,99.90
2023-03-28T22:02:13.423Z,99.90
2023-03-28T22:04:41.087Z,99.90
2023-03-28T22:07:08.188Z,99.90
2023-03-28T22:09:36.065Z,99.90
2023-03-28T22:12:05.700Z,99.90
2023-03-28T22:14:34.379Z,99.90
2023-03-28T22:17:01.290Z,99.90
2023-03-28T22:19:30.030Z,99.90
2023-03-28T22:22:00.759Z,99.90
2023-03-28T22:24:28.250Z,99.90
2023-03-28T22:26:55.579Z,99.90
2023-03-28T22:29:22.558Z,99.90
2023-03-28T22:31:49.847Z,99.90
2023-03-28T22:34:17.740Z,99.90
2023-03-28T22:36:44.774Z,99.90
2023-03-28T22:39:12.348Z,99.90
2023-03-28T22:41:44.943Z,99.90
2023-03-28T22:44:13.081Z,99.90
2023-03-28T22:46:41.081Z,99.90
2023-03-28T22:49:13.072Z,99.90
2023-03-28T22:51:49.008Z,99.90
2023-03-28T22:54:21.225Z,99.90
2023-03-28T22:56:49.282Z,99.90
2023-03-28T22:59:16.463Z,99.90
2023-03-28T23:01:45.516Z,99.90
2023-03-28T23:04:15.212Z,99.90
2023-03-28T23:06:42.872Z,99.90
2023-03-28T23:09:10.197Z,99.90
2023-03-28T23:11:37.093Z,99.90
2023-03-28T23:14:04.386Z,99.90
2023-03-28T23:16:32.979Z,99.90
2023-03-28T23:19:00.537Z,99.90
2023-03-28T23:21:28.188Z,99.90
2023-03-28T23:23:55.760Z,99.90
2023-03-28T23:26:23.008Z,99.90
2023-03-28T23:28:49.966Z,99.90
2023-03-28T23:31:16.957Z,99.90
2023-03-28T23:33:46.408Z,99.90
2023-03-28T23:36:14.849Z,99.90
2023-03-28T23:38:42.029Z,99.90
2023-03-28T23:41:09.123Z,99.90
2023-03-28T23:43:36.194Z,99.90
2023-03-28T23:46:04.566Z,99.90
2023-03-28T23:48:32.062Z,99.90
2023-03-28T23:51:02.049Z,99.90
2023-03-28T23:53:29.770Z,99.90
2023-03-28T23:55:56.752Z,99.90
2023-03-28T23:58:23.678Z,99.90
